Time,TemperatureF,DewpointF,PressureIn,WindDirection,WindDirectionDegrees,WindSpeedMPH,WindSpeedGustMPH,Humidity,HourlyPrecipIn,Conditions,Clouds,dailyrainin,SoftwareType,DateUTC
2013-10-13 00:05:00,50.7,50.0,30.44,WSW,238,0.0,-999.0,97,-99.99,,,0.00,weatherlink.com 1.10,2013-10-13 04:05:00,
2013-10-13 00:20:00,50.6,50.0,30.44,WSW,238,0.0,-999.0,97,-99.99,,,0.00,weatherlink.com 1.10,2013-10-13 04:20:00,
2013-10-13 00:36:00,50.5,50.0,30.44,WSW,238,0.0,-999.0,98,-99.99,,,0.00,weatherlink.com 1.10,2013-10-13 04:36:00,
2013-10-13 00:51:00,50.4,50.0,30.45,WSW,238,0.0,-999.0,98,-99.99,,,0.00,weatherlink.com 1.10,2013-10-13 04:51:00,
2013-10-13 01:06:00,50.1,49.0,30.45,WSW,238,0.0,-999.0,97,-99.99,,,0.00,weatherlink.com 1.10,2013-10-13 05:06:00,
2013-10-13 01:21:00,50.0,49.0,30.45,WSW,238,0.0,-999.0,97,-99.99,,,0.00,weatherlink.com 1.10,2013-10-13 05:21:00,
2013-10-13 01:36:00,49.7,49.0,30.45,WSW,238,0.0,-999.0,97,-99.99,,,0.00,weatherlink.com 1.10,2013-10-13 05:36:00,
2013-10-13 01:51:00,49.3,49.0,30.45,WSW,238,0.0,-999.0,97,-99.99,,,0.00,weatherlink.com 1.10,2013-10-13 05:51:00,
2013-10-13 02:06:00,48.8,48.0,30.45,WSW,238,0.0,-999.0,97,-99.99,,,0.00,weatherlink.com 1.10,2013-10-13 06:06:00,
2013-10-13 02:21:00,48.3,48.0,30.44,WSW,238,0.0,-999.0,97,-99.99,,,0.00,weatherlink.com 1.10,2013-10-13 06:21:00,
2013-10-13 02:36:00,48.1,47.0,30.43,WSW,238,0.0,-999.0,97,-99.99,,,0.00,weatherlink.com 1.10,2013-10-13 06:36:00,
2013-10-13 02:51:00,47.7,47.0,30.44,WSW,238,0.0,-999.0,97,-99.99,,,0.00,weatherlink.com 1.10,2013-10-13 06:51:00,
2013-10-13 03:06:00,47.2,46.0,30.44,WSW,238,0.0,-999.0,97,-99.99,,,0.00,weatherlink.com 1.10,2013-10-13 07:06:00,
2013-10-13 03:21:00,46.6,46.0,30.43,WSW,238,0.0,-999.0,96,-99.99,,,0.00,weatherlink.com 1.10,2013-10-13 07:21:00,
2013-10-13 03:36:00,45.9,45.0,30.43,WSW,238,0.0,-999.0,96,-99.99,,,0.00,weatherlink.com 1.10,2013-10-13 07:36:00,
2013-10-13 03:51:00,45.2,44.0,30.43,WSW,238,0.0,-999.0,96,-99.99,,,0.00,weatherlink.com 1.10,2013-10-13 07:51:00,
2013-10-13 04:06:00,44.5,44.0,30.43,WSW,238,0.0,-999.0,96,-99.99,,,0.00,weatherlink.com 1.10,2013-10-13 08:06:00,
2013-10-13 04:21:00,43.9,43.0,30.43,WSW,238,0.0,-999.0,96,-99.99,,,0.00,weatherlink.com 1.10,2013-10-13 08:21:00,
2013-10-13 04:36:00,43.4,42.0,30.44,WSW,238,0.0,-999.0,96,-99.99,,,0.00,weatherlink.com 1.10,2013-10-13 08:36:00,
2013-10-13 04:51:00,42.9,42.0,30.44,WSW,238,0.0,-999.0,96,-99.99,,,0.00,weatherlink.com 1.10,2013-10-13 08:51:00,
2013-10-13 05:06:00,42.5,42.0,30.44,WSW,238,0.0,-999.0,96,-99.99,,,0.00,weatherlink.com 1.10,2013-10-13 09:06:00,
2013-10-13 05:21:00,42.2,41.0,30.44,WSW,238,0.0,-999.0,97,-99.99,,,0.00,weatherlink.com 1.10,2013-10-13 09:21:00,
2013-10-13 05:36:00,41.9,41.0,30.44,WSW,238,0.0,-999.0,97,-99.99,,,0.00,weatherlink.com 1.10,2013-10-13 09:36:00,
2013-10-13 05:51:00,41.6,41.0,30.45,WSW,238,0.0,-999.0,97,-99.99,,,0.00,weatherlink.com 1.10,2013-10-13 09:51:00,
2013-10-13 06:06:00,41.4,41.0,30.45,WSW,238,0.0,-999.0,97,-99.99,,,0.00,weatherlink.com 1.10,2013-10-13 10:06:00,
2013-10-13 06:21:00,41.2,40.0,30.45,WSW,238,0.0,-999.0,97,-99.99,,,0.00,weatherlink.com 1.10,2013-10-13 10:21:00,
2013-10-13 06:36:00,41.0,40.0,30.46,WSW,238,0.0,-999.0,97,-99.99,,,0.00,weatherlink.com 1.10,2013-10-13 10:36:00,
2013-10-13 06:51:00,40.7,40.0,30.46,WSW,238,0.0,-999.0,97,-99.99,,,0.00,weatherlink.com 1.10,2013-10-13 10:51:00,
2013-10-13 07:06:00,40.5,40.0,30.47,WSW,238,0.0,-999.0,97,-99.99,,,0.00,weatherlink.com 1.10,2013-10-13 11:06:00,
2013-10-13 07:21:00,40.4,40.0,30.47,WSW,238,0.0,-999.0,97,-99.99,,,0.00,weatherlink.com 1.10,2013-10-13 11:21:00,
2013-10-13 07:36:00,40.4,40.0,30.47,WSW,238,0.0,-999.0,97,-99.99,,,0.00,weatherlink.com 1.10,2013-10-13 11:36:00,
2013-10-13 07:51:00,40.7,40.0,30.48,WSW,238,0.0,-999.0,98,-99.99,,,0.00,weatherlink.com 1.10,2013-10-13 11:51:00,
2013-10-13 08:06:00,41.3,41.0,30.48,WSW,238,0.0,-999.0,98,-99.99,,,0.00,weatherlink.com 1.10,2013-10-13 12:06:00,
2013-10-13 08:21:00,42.0,42.0,30.48,WSW,238,0.0,-999.0,98,-99.99,,,0.00,weatherlink.com 1.10,2013-10-13 12:21:00,
2013-10-13 08:36:00,43.5,43.0,30.48,WSW,238,0.0,-999.0,98,-99.99,,,0.00,weatherlink.com 1.10,2013-10-13 12:36:00,
2013-10-13 08:51:00,46.8,47.0,30.49,WSW,238,0.0,-999.0,99,-99.99,,,0.00,weatherlink.com 1.10,2013-10-13 12:51:00,
2013-10-13 09:06:00,49.5,49.0,30.49,WSW,238,0.0,-999.0,99,-99.99,,,0.00,weatherlink.com 1.10,2013-10-13 13:06:00,
2013-10-13 09:21:00,50.6,50.0,30.50,WSW,239,0.0,-999.0,99,-99.99,,,0.00,weatherlink.com 1.10,2013-10-13 13:21:00,
2013-10-13 09:37:00,51.8,52.0,30.49,WSW,239,0.0,-999.0,99,-99.99,,,0.00,weatherlink.com 1.10,2013-10-13 13:37:00,
2013-10-13 09:52:00,53.7,53.0,30.49,WSW,239,0.0,-999.0,98,-99.99,,,0.00,weatherlink.com 1.10,2013-10-13 13:52:00,
2013-10-13 10:07:00,54.9,52.0,30.50,SW,222,0.0,-999.0,91,-99.99,,,0.00,weatherlink.com 1.10,2013-10-13 14:07:00,
2013-10-13 10:22:00,55.0,52.0,30.49,SW,219,1.0,-999.0,90,-99.99,,,0.00,weatherlink.com 1.10,2013-10-13 14:22:00,
2013-10-13 10:37:00,57.1,52.0,30.49,SSE,162,1.0,-999.0,82,-99.99,,,0.00,weatherlink.com 1.10,2013-10-13 14:37:00,
2013-10-13 10:52:00,57.9,52.0,30.49,SSE,163,2.0,-999.0,80,-99.99,,,0.00,weatherlink.com 1.10,2013-10-13 14:52:00,
2013-10-13 11:07:00,57.3,50.0,30.49,South,175,2.0,-999.0,76,-99.99,,,0.00,weatherlink.com 1.10,2013-10-13 15:07:00,
2013-10-13 11:22:00,57.1,50.0,30.49,SE,142,0.0,-999.0,77,-99.99,,,0.00,weatherlink.com 1.10,2013-10-13 15:22:00,
2013-10-13 11:37:00,56.5,49.0,30.49,SSE,148,1.0,-999.0,77,-99.99,,,0.00,weatherlink.com 1.10,2013-10-13 15:37:00,
2013-10-13 11:52:00,55.9,50.0,30.49,SSE,159,0.0,-999.0,81,-99.99,,,0.00,weatherlink.com 1.10,2013-10-13 15:52:00,
2013-10-13 12:07:00,55.9,51.0,30.49,WSW,242,0.0,-999.0,82,-99.99,,,0.00,weatherlink.com 1.10,2013-10-13 16:07:00,
2013-10-13 12:22:00,56.5,51.0,30.48,WSW,242,0.0,-999.0,83,-99.99,,,0.00,weatherlink.com 1.10,2013-10-13 16:22:00,
2013-10-13 12:37:00,56.6,51.0,30.48,SW,227,1.0,-999.0,80,-99.99,,,0.00,weatherlink.com 1.10,2013-10-13 16:37:00,
2013-10-13 12:52:00,56.4,49.0,30.47,SSE,165,0.0,-999.0,77,-99.99,,,0.00,weatherlink.com 1.10,2013-10-13 16:52:00,
2013-10-13 13:07:00,56.5,51.0,30.47,South,174,0.0,-999.0,81,-99.99,,,0.00,weatherlink.com 1.10,2013-10-13 17:07:00,
2013-10-13 13:22:00,56.7,50.0,30.46,South,174,0.0,-999.0,78,-99.99,,,0.00,weatherlink.com 1.10,2013-10-13 17:22:00,
2013-10-13 13:37:00,57.0,51.0,30.46,South,174,0.0,-999.0,81,-99.99,,,0.00,weatherlink.com 1.10,2013-10-13 17:37:00,
2013-10-13 13:52:00,57.1,51.0,30.46,South,174,0.0,-999.0,80,-99.99,,,0.00,weatherlink.com 1.10,2013-10-13 17:52:00,
2013-10-13 14:07:00,57.1,51.0,30.46,South,174,0.0,-999.0,80,-99.99,,,0.00,weatherlink.com 1.10,2013-10-13 18:07:00,
2013-10-13 14:22:00,57.0,51.0,30.46,South,174,0.0,-999.0,80,-99.99,,,0.00,weatherlink.com 1.10,2013-10-13 18:22:00,
2013-10-13 14:37:00,56.9,50.0,30.46,South,174,0.0,-999.0,78,-99.99,,,0.00,weatherlink.com 1.10,2013-10-13 18:37:00,
2013-10-13 14:52:00,56.7,50.0,30.46,South,173,1.0,-999.0,79,-99.99,,,0.00,weatherlink.com 1.10,2013-10-13 18:52:00,
2013-10-13 15:07:00,56.5,51.0,30.45,South,176,0.0,-999.0,81,-99.99,,,0.00,weatherlink.com 1.10,2013-10-13 19:07:00,
2013-10-13 15:22:00,56.5,51.0,30.45,South,176,0.0,-999.0,82,-99.99,,,0.00,weatherlink.com 1.10,2013-10-13 19:22:00,
2013-10-13 15:37:00,56.2,50.0,30.45,South,176,0.0,-999.0,80,-99.99,,,0.00,weatherlink.com 1.10,2013-10-13 19:37:00,
2013-10-13 15:52:00,56.1,51.0,30.45,South,178,0.0,-999.0,83,-99.99,,,0.00,weatherlink.com 1.10,2013-10-13 19:52:00,
2013-10-13 16:07:00,55.8,49.0,30.45,South,178,0.0,-999.0,79,-99.99,,,0.00,weatherlink.com 1.10,2013-10-13 20:07:00,
2013-10-13 16:22:00,55.6,50.0,30.45,South,178,0.0,-999.0,81,-99.99,,,0.00,weatherlink.com 1.10,2013-10-13 20:22:00,
2013-10-13 16:37:00,55.4,49.0,30.45,South,177,2.0,-999.0,80,-99.99,,,0.00,weatherlink.com 1.10,2013-10-13 20:37:00,
2013-10-13 16:52:00,55.4,49.0,30.44,South,182,0.0,-999.0,80,-99.99,,,0.00,weatherlink.com 1.10,2013-10-13 20:52:00,
2013-10-13 17:07:00,54.9,49.0,30.44,South,182,0.0,-999.0,81,-99.99,,,0.00,weatherlink.com 1.10,2013-10-13 21:07:00,
2013-10-13 17:22:00,54.2,49.0,30.44,South,182,0.0,-999.0,83,-99.99,,,0.00,weatherlink.com 1.10,2013-10-13 21:22:00,
2013-10-13 17:37:00,53.3,49.0,30.44,South,182,0.0,-999.0,84,-99.99,,,0.00,weatherlink.com 1.10,2013-10-13 21:37:00,
2013-10-13 17:52:00,52.3,48.0,30.43,South,182,0.0,-999.0,86,-99.99,,,0.00,weatherlink.com 1.10,2013-10-13 21:52:00,
2013-10-13 18:07:00,51.3,48.0,30.43,South,182,0.0,-999.0,87,-99.99,,,0.00,weatherlink.com 1.10,2013-10-13 22:07:00,
2013-10-13 18:22:00,50.1,47.0,30.43,South,182,0.0,-999.0,89,-99.99,,,0.00,weatherlink.com 1.10,2013-10-13 22:22:00,
2013-10-13 18:37:00,49.0,46.0,30.44,South,182,0.0,-999.0,90,-99.99,,,0.00,weatherlink.com 1.10,2013-10-13 22:37:00,
2013-10-13 18:52:00,47.9,46.0,30.44,South,182,0.0,-999.0,91,-99.99,,,0.00,weatherlink.com 1.10,2013-10-13 22:52:00,
2013-10-13 19:07:00,46.9,45.0,30.44,South,182,0.0,-999.0,91,-99.99,,,0.00,weatherlink.com 1.10,2013-10-13 23:07:00,
2013-10-13 19:22:00,46.0,44.0,30.44,South,182,0.0,-999.0,92,-99.99,,,0.00,weatherlink.com 1.10,2013-10-13 23:22:00,
2013-10-13 19:37:00,45.1,43.0,30.45,South,182,0.0,-999.0,93,-99.99,,,0.00,weatherlink.com 1.10,2013-10-13 23:37:00,
2013-10-13 19:52:00,44.4,43.0,30.45,South,182,0.0,-999.0,93,-99.99,,,0.00,weatherlink.com 1.10,2013-10-13 23:52:00,
2013-10-13 20:07:00,43.7,42.0,30.44,South,182,0.0,-999.0,94,-99.99,,,0.00,weatherlink.com 1.10,2013-10-14 00:07:00,
2013-10-13 20:22:00,43.2,42.0,30.45,South,182,0.0,-999.0,94,-99.99,,,0.00,weatherlink.com 1.10,2013-10-14 00:22:00,
2013-10-13 20:37:00,42.6,41.0,30.45,South,182,0.0,-999.0,94,-99.99,,,0.00,weatherlink.com 1.10,2013-10-14 00:37:00,
2013-10-13 20:52:00,42.0,41.0,30.46,South,182,0.0,-999.0,95,-99.99,,,0.00,weatherlink.com 1.10,2013-10-14 00:52:00,
2013-10-13 21:07:00,41.6,40.0,30.46,South,182,0.0,-999.0,95,-99.99,,,0.00,weatherlink.com 1.10,2013-10-14 01:07:00,
2013-10-13 21:22:00,41.1,40.0,30.46,South,182,0.0,-999.0,95,-99.99,,,0.00,weatherlink.com 1.10,2013-10-14 01:22:00,
2013-10-13 21:37:00,40.7,39.0,30.47,South,182,0.0,-999.0,95,-99.99,,,0.00,weatherlink.com 1.10,2013-10-14 01:37:00,
2013-10-13 21:52:00,40.3,39.0,30.47,South,182,0.0,-999.0,95,-99.99,,,0.00,weatherlink.com 1.10,2013-10-14 01:52:00,
2013-10-13 22:07:00,39.9,39.0,30.46,South,182,0.0,-999.0,95,-99.99,,,0.00,weatherlink.com 1.10,2013-10-14 02:07:00,
2013-10-13 22:22:00,39.5,38.0,30.46,South,182,0.0,-999.0,95,-99.99,,,0.00,weatherlink.com 1.10,2013-10-14 02:22:00,
2013-10-13 22:37:00,39.0,38.0,30.46,South,182,0.0,-999.0,95,-99.99,,,0.00,weatherlink.com 1.10,2013-10-14 02:37:00,
2013-10-13 22:52:00,38.6,37.0,30.46,South,182,0.0,-999.0,95,-99.99,,,0.00,weatherlink.com 1.10,2013-10-14 02:52:00,
2013-10-13 23:07:00,38.3,37.0,30.46,South,182,0.0,-999.0,95,-99.99,,,0.00,weatherlink.com 1.10,2013-10-14 03:07:00,
2013-10-13 23:22:00,37.8,37.0,30.46,South,182,0.0,-999.0,95,-99.99,,,0.00,weatherlink.com 1.10,2013-10-14 03:22:00,
2013-10-13 23:37:00,37.4,36.0,30.45,South,182,0.0,-999.0,95,-99.99,,,0.00,weatherlink.com 1.10,2013-10-14 03:37:00,
2013-10-13 23:52:00,37.0,36.0,30.45,South,182,0.0,-999.0,95,-99.99,,,0.00,weatherlink.com 1.10,2013-10-14 03:52:00,